• Join FlightAware (Why Join?)
  • Login
  • US Flag 
12:41PM EST


 

Airport Tracker/Info


-or-


 

Live Flight TrackerFlight Track Log ✈ UAL1839 ✈ 29-Oct-2012 ✈ KDTW - KSFO

Flight Track Log - Related Links

Times and Time Zones

All times are in EDT time to prevent confusion due to time zone crossing. See the UAL1839 flight status page for this flight to view local times or setup timezone preferences in your user account.

Time Position Orientation Groundspeed Altitude Reporting Facility
EDT Latitude Longitude Course Direction KTS MPH feet Rate Location/Type
04:33PM 42.2289 -83.3539 17° North 153 176 1,500  Level Cleveland Center
04:34PM 42.2961 -83.3258 334° Northwest 191 220 4,400 2,040 Climbing Cleveland Center
04:35PM 42.3453 -83.3589 282° West 245 282 6,600 1,860 Climbing Cleveland Center
04:36PM 42.3489 -83.3814 274° West 274 315 6,900 2,580 Climbing Cleveland Center
04:37PM 42.3531 -83.4661 281° West 283 326 9,300 2,700 Climbing Cleveland Center
04:37PM 42.3567 -83.4914 278° West 287 330 9,600 1,260 Climbing Cleveland Center
04:38PM 42.3683 -83.6100 278° West 352 405 10,900 1,740 Climbing Cleveland Center
04:39PM 42.3850 -83.7660 277° West 344 396 13,700 1,320 Climbing FlightAware
04:40PM 42.3930 -83.8530 279° West 344 396 13,700 2,160 Level FlightAware
04:41PM 42.4050 -83.9620 278° West 356 410 17,000 3,000 Climbing FlightAware
04:41PM 42.4130 -84.0420 277° West 382 440 17,500 1,080 Climbing FlightAware
04:42PM 42.4240 -84.1610 274° West 401 461 18,600 1,560 Climbing FlightAware
04:43PM 42.4300 -84.2690 272° West 405 466 19,900 1,680 Climbing FlightAware
04:43PM 42.4330 -84.3840 272° West 417 480 21,000 1,380 Climbing FlightAware
04:44PM 42.4350 -84.4870 272° West 426 490 21,900 1,380 Climbing FlightAware
04:45PM 42.4380 -84.5990 272° West 431 496 22,900 1,500 Climbing FlightAware
04:45PM 42.4410 -84.7210 272° West 431 496 24,100 1,380 Climbing FlightAware
04:46PM 42.4440 -84.8280 271° West 439 505 24,900 1,200 Climbing FlightAware
04:47PM 42.4460 -84.9550 272° West 445 512 25,800 1,260 Climbing FlightAware
04:48PM 42.4490 -85.0660 271° West 449 517 26,700 1,500 Climbing FlightAware
04:48PM 42.4510 -85.1780 272° West 443 510 27,800 1,200 Climbing FlightAware
04:49PM 42.4540 -85.3120 271° West 449 517 28,500 720 Climbing FlightAware
04:50PM 42.4560 -85.4260 271° West 460 529 28,900 600 Climbing FlightAware
04:50PM 42.4580 -85.5430 271° West 468 539 29,300 720 Climbing FlightAware
04:51PM 42.4600 -85.6760 271° West 473 544 30,000 840 Climbing FlightAware
04:52PM 42.4620 -85.7970 271° West 479 551 30,500 720 Climbing FlightAware
04:52PM 42.4640 -85.9150 271° West 481 554 31,000 840 Climbing FlightAware
04:53PM 42.4650 -86.0540 265° West 480 552 31,700 900 Climbing FlightAware
04:54PM 42.4580 -86.1690 261° West 462 532 32,300 900 Climbing FlightAware
04:55PM 42.4430 -86.2930 260° West 460 529 33,000 600 Climbing FlightAware
04:55PM 42.4290 -86.4000 260° West 459 528 33,200 480 Climbing FlightAware
04:56PM 42.4130 -86.5260 260° West 469 540 33,700 540 Climbing FlightAware
04:57PM 42.3970 -86.6520 260° West 473 544 34,000 180 Climbing FlightAware
04:57PM 42.3810 -86.7750 260° West 480 552 34,000  Level FlightAware
04:58PM 42.3640 -86.9060 260° West 479 551 34,000  Level FlightAware
04:59PM 42.3490 -87.0190 260° West 479 551 34,000  Level FlightAware
04:59PM 42.3340 -87.1390 260° West 479 551 34,000  Level FlightAware
05:00PM 42.3160 -87.2710 259° West 479 551 34,000  Level FlightAware
05:01PM 42.2990 -87.3930 260° West 479 551 34,000  Level FlightAware
05:02PM 42.2820 -87.5210 259° West 478 550 34,000  Level FlightAware
05:02PM 42.2680 -87.6170 259° West 478 550 34,000  Level FlightAware
05:03PM 42.2540 -87.7160 259° West 478 550 34,000  Level FlightAware
05:04PM 42.2360 -87.8410 264° West 478 550 34,000  Level FlightAware
05:04PM 42.2250 -87.9820 269° West 495 570 34,000  Level FlightAware
05:05PM 42.2240 -88.1000 269° West 495 570 34,000  Level FlightAware
05:06PM 42.2220 -88.2320 269° West 495 570 34,000  Level FlightAware
05:06PM 42.2210 -88.3370 269° West 495 570 34,000  Level FlightAware
05:07PM 42.2200 -88.4420 288° West 495 570 34,000  Level FlightAware
05:08PM 42.2778 -88.6847 274° West 511 588 34,000  Level Chicago Center
05:09PM 42.2869 -88.8728 276° West 499 574 34,000  Level Chicago Center
05:10PM 42.3000 -89.0494 275° West 491 565 34,000  Level Chicago Center
05:11PM 42.3131 -89.2403 276° West 502 578 34,000  Level Chicago Center
05:12PM 42.3256 -89.4172 275° West 497 572 34,000  Level Chicago Center
05:13PM 42.3378 -89.5969 275° West 487 560 34,000  Level Chicago Center
05:14PM 42.3497 -89.7769 275° West 482 555 34,000  Level Chicago Center
05:15PM 42.3614 -89.9483 274° West 482 555 34,000  Level Chicago Center
05:16PM 42.3708 -90.1283 275° West 476 548 34,000  Level Chicago Center
05:17PM 42.3819 -90.3056 274° West 482 555 34,000  Level Chicago Center
05:18PM 42.3908 -90.4800 273° West 482 555 34,000  Level Chicago Center
05:19PM 42.3972 -90.6517 276° West 476 548 34,000  Level Chicago Center
05:20PM 42.4097 -90.8261 276° West 471 542 34,000  Level Chicago Center
05:21PM 42.4222 -90.9925 276° West 460 529 34,000  Level Chicago Center
05:22PM 42.4344 -91.1561 275° West 454 522 34,000  Level Chicago Center
05:23PM 42.4461 -91.3222 275° West 449 517 34,000  Level Chicago Center
05:24PM 42.4558 -91.4831 276° West 444 511 34,000  Level Chicago Center
05:25PM 42.4672 -91.6439 276° West 439 505 34,000  Level Chicago Center
05:26PM 42.4786 -91.8047 274° West 439 505 34,000  Level Chicago Center
05:27PM 42.4875 -91.9683 275° West 439 505 34,000  Level Chicago Center
05:28PM 42.4983 -92.1322 274° West 444 511 34,000  Level Chicago Center
05:29PM 42.5031 -92.2292 275° West 436 502 34,000  Level Minneapolis Center
05:30PM 42.5136 -92.3925 274° West 437 503 34,000  Level Minneapolis Center
05:31PM 42.5222 -92.5467 275° West 429 494 34,000  Level Minneapolis Center
05:32PM 42.5317 -92.6992 274° West 419 482 34,000  Level Minneapolis Center
05:33PM 42.5397 -92.8533 275° West 415 478 34,000  Level Minneapolis Center
05:34PM 42.5486 -93.0067 274° West 413 475 34,000  Level Minneapolis Center
05:35PM 42.5564 -93.1600 274° West 411 473 34,000  Level Minneapolis Center
05:36PM 42.5661 -93.3447 274° West 412 474 34,000  Level Minneapolis Center
05:37PM 42.5744 -93.4950 274° West 407 468 34,000  Level Minneapolis Center
05:38PM 42.5817 -93.6419 274° West 397 457 34,000  Level Minneapolis Center
05:39PM 42.5886 -93.7908 274° West 398 458 34,000  Level Minneapolis Center
05:40PM 42.5958 -93.9406 274° West 401 461 34,000  Level Minneapolis Center
05:41PM 42.6028 -94.0928 273° West 404 465 34,000  Level Minneapolis Center
05:42PM 42.6108 -94.2758 271° West 408 470 34,000  Level Minneapolis Center
05:43PM 42.6122 -94.4308 268° West 413 475 34,000  Level Minneapolis Center
05:44PM 42.6083 -94.5867 268° West 417 480 34,000  Level Minneapolis Center
05:45PM 42.6050 -94.7494 268° West 410 472 34,000  Level Minneapolis Center
05:46PM 42.6014 -94.9036 269° West 409 471 34,000  Level Minneapolis Center
05:47PM 42.5989 -95.0572 269° West 409 471 34,000  Level Minneapolis Center
05:48PM 42.5964 -95.2164 268° West 417 480 34,000  Level Minneapolis Center
05:49PM 42.5928 -95.3706 268° West 413 475 34,000  Level Minneapolis Center
05:50PM 42.5894 -95.5256 268° West 413 475 34,000  Level Minneapolis Center
05:51PM 42.5853 -95.6800 268° West 412 474 34,000  Level Minneapolis Center
05:52PM 42.5803 -95.8633 268° West 409 471 34,000  Level Minneapolis Center
05:53PM 42.5761 -96.0183 268° West 412 474 34,000  Level Minneapolis Center
05:54PM 42.5717 -96.1733 268° West 411 473 34,000  Level Minneapolis Center
05:55PM 42.5675 -96.3264 267° West 410 472 34,000  Level Minneapolis Center
05:56PM 42.5622 -96.4794 267° West 408 470 34,000  Level Minneapolis Center
05:57PM 42.5569 -96.6308 268° West 406 467 34,000  Level Minneapolis Center
05:58PM 42.5519 -96.7842 268° West 406 467 34,000  Level Minneapolis Center
05:59PM 42.5464 -96.9686 267° West 408 470 34,000  Level Minneapolis Center
06:00PM 42.5400 -97.1214 267° West 408 470 34,000  Level Minneapolis Center
06:01PM 42.5333 -97.2742 267° West 408 470 34,000  Level Minneapolis Center
06:02PM 42.5275 -97.4278 267° West 409 471 34,000  Level Minneapolis Center
06:03PM 42.5208 -97.5806 267° West 408 470 34,000  Level Minneapolis Center
06:05PM 42.5144 -97.7347 267° West 410 472 34,000  Level Minneapolis Center
06:06PM 42.5083 -97.8900 267° West 410 472 34,000  Level Minneapolis Center
06:07PM 42.5022 -98.0417 266° West 407 468 34,000  Level Minneapolis Center
06:08PM 42.4928 -98.2250 266° West 408 470 34,000  Level Minneapolis Center
06:09PM 42.4856 -98.3781 267° West 407 468 34,000  Level Minneapolis Center
06:10PM 42.4789 -98.5331 266° West 410 472 34,000  Level Minneapolis Center
06:11PM 42.4708 -98.6853 263° West 409 471 34,000  Level Minneapolis Center
06:12PM 42.4564 -98.8375 262° West 408 470 34,000  Level Minneapolis Center
06:13PM 42.4406 -98.9908 262° West 411 473 34,000  Level Minneapolis Center
06:14PM 42.4250 -99.1428 262° West 410 472 34,000  Level Minneapolis Center
06:15PM 42.4086 -99.2933 262° West 408 470 34,000  Level Minneapolis Center
06:15PM 42.3964 -99.4150 262° West 407 468 34,000  Level Denver Center
06:16PM 42.3800 -99.5644 262° West 404 465 34,000  Level Denver Center
06:17PM 42.3647 -99.7081 262° West 402 463 34,000  Level Denver Center
06:18PM 42.3467 -99.8761 262° West 403 464 34,000  Level Denver Center
06:20PM 42.3317 -100.0169 261° West 400 460 34,000  Level Denver Center
06:21PM 42.3131 -100.1833 261° West 401 461 34,000  Level Denver Center
06:22PM 42.2969 -100.3272 261° West 404 465 34,000  Level Denver Center
06:23PM 42.2775 -100.4939 262° West 403 464 34,000  Level Denver Center
06:24PM 42.2619 -100.6367 261° West 403 464 34,000  Level Denver Center
06:25PM 42.2450 -100.7789 261° West 403 464 34,000  Level Denver Center
06:26PM 42.2250 -100.9453 261° West 404 465 34,000  Level Denver Center
06:27PM 42.2086 -101.0875 261° West 402 463 34,000  Level Denver Center
06:28PM 42.1881 -101.2536 261° West 403 464 34,000  Level Denver Center
06:29PM 42.1711 -101.3964 260° West 404 465 34,000  Level Denver Center
06:30PM 42.1500 -101.5642 261° West 407 468 34,000  Level Denver Center
06:31PM 42.1325 -101.7072 260° West 406 467 34,000  Level Denver Center
06:32PM 42.1114 -101.8753 260° West 407 468 34,000  Level Denver Center
06:33PM 42.0931 -102.0203 260° West 410 472 34,000  Level Denver Center
06:34PM 42.0601 -102.2670 260° West 412 474 34,000  Level FlightAware ADS-B
06:35PM 42.0501 -102.3430 260° West 412 474 34,000  Level FlightAware ADS-B
06:35PM 42.0391 -102.4270 260° West 412 474 34,000  Level FlightAware ADS-B
06:36PM 42.0287 -102.5050 260° West 412 474 34,000  Level FlightAware ADS-B
06:36PM 42.0187 -102.5810 260° West 411 473 34,000  Level FlightAware ADS-B
06:37PM 42.0084 -102.6570 260° West 411 473 34,000  Level FlightAware ADS-B
06:38PM 41.9982 -102.7320 260° West 410 472 34,000  Level FlightAware ADS-B
06:38PM 41.9876 -102.8100 260° West 409 471 34,000  Level FlightAware ADS-B
06:39PM 41.9773 -102.8850 260° West 409 471 34,000  Level FlightAware ADS-B
06:39PM 41.9670 -102.9610 260° West 408 470 34,000  Level FlightAware ADS-B
06:40PM 41.9566 -103.0370 259° West 408 470 34,000  Level FlightAware ADS-B
06:40PM 41.9462 -103.1120 259° West 407 468 34,000  Level FlightAware ADS-B
06:41PM 41.9357 -103.1870 259° West 407 468 34,000  Level FlightAware ADS-B
06:41PM 41.9230 -103.2780 259° West 408 470 34,000  Level FlightAware ADS-B
06:42PM 41.9117 -103.3590 259° West 412 474 34,000  Level FlightAware ADS-B
06:42PM 41.9007 -103.4360 259° West 413 475 34,000  Level FlightAware ADS-B
06:42PM 41.8950 -103.4740 253° West 414 476 34,000  Level FlightAware ADS-B
06:43PM 41.8766 -103.5560 252° West 416 479 34,000  Level FlightAware ADS-B
06:44PM 41.8551 -103.6460 252° West 417 480 34,000 120 Level FlightAware ADS-B
06:44PM 41.8370 -103.7220 252° West 423 487 34,200 780 Climbing FlightAware ADS-B
06:45PM 41.8187 -103.7980 252° West 422 486 34,800 1,020 Climbing FlightAware ADS-B
06:45PM 41.8004 -103.8750 252° West 419 482 35,300 840 Climbing FlightAware ADS-B
06:46PM 41.7825 -103.9490 252° West 417 480 35,700 660 Climbing FlightAware ADS-B
06:46PM 41.7646 -104.0230 252° West 416 479 36,000 240 Climbing FlightAware ADS-B
06:47PM 41.7462 -104.0990 252° West 416 479 36,000  Level FlightAware ADS-B
06:47PM 41.7276 -104.1750 252° West 418 481 36,000  Level FlightAware ADS-B
06:48PM 41.7069 -104.2600 252° West 418 481 36,000  Level FlightAware ADS-B
06:48PM 41.6883 -104.3360 252° West 420 483 36,000  Level FlightAware ADS-B
06:49PM 41.6701 -104.4100 252° West 419 482 36,000  Level FlightAware ADS-B
06:49PM 41.6515 -104.4850 251° West 420 483 36,000  Level FlightAware ADS-B
06:50PM 41.6322 -104.5620 252° West 422 486 36,000  Level FlightAware ADS-B
06:50PM 41.6134 -104.6380 252° West 424 488 36,000  Level FlightAware ADS-B
06:51PM 41.5949 -104.7130 252° West 424 488 36,000  Level FlightAware ADS-B
06:51PM 41.5747 -104.7940 252° West 427 491 36,000  Level FlightAware ADS-B
06:52PM 41.5559 -104.8690 251° West 428 493 36,000  Level FlightAware ADS-B
06:52PM 41.5367 -104.9450 251° West 418 481 36,000  Level FlightAware ADS-B
06:53PM 41.5182 -105.0180 251° West 416 479 36,000  Level FlightAware ADS-B
06:53PM 41.4994 -105.0920 251° West 417 480 36,000  Level FlightAware ADS-B
06:54PM 41.4807 -105.1650 251° West 419 482 36,000  Level FlightAware ADS-B
06:54PM 41.4610 -105.2420 251° West 421 484 36,000  Level FlightAware
06:55PM 41.4373 -105.3360 251° West 422 486 36,000  Level FlightAware ADS-B
06:56PM 41.4240 -105.3880 251° West 423 487 36,000  Level FlightAware
06:56PM 41.3930 -105.5100 251° West 429 494 36,000  Level FlightAware
06:57PM 41.3630 -105.6260 250° West 432 497 36,000  Level FlightAware
06:58PM 41.3390 -105.7130 252° West 432 497 36,000  Level FlightAware
06:58PM 41.3150 -105.8110 252° West 431 496 36,000  Level FlightAware
06:59PM 41.2870 -105.9250 252° West 432 497 36,000  Level FlightAware
07:00PM 41.2590 -106.0370 251° West 428 493 36,000  Level FlightAware
07:01PM 41.2330 -106.1390 252° West 414 476 36,000  Level FlightAware
07:01PM 41.2070 -106.2440 252° West 412 474 36,000  Level FlightAware
07:02PM 41.1790 -106.3560 251° West 421 484 36,000  Level FlightAware
07:03PM 41.1570 -106.4410 252° West 425 489 36,000  Level FlightAware
07:03PM 41.1300 -106.5510 251° West 428 493 36,000  Level FlightAware
07:04PM 41.1040 -106.6510 251° West 431 496 36,000  Level FlightAware
07:05PM 41.0790 -106.7460 251° West 431 496 36,000  Level FlightAware
07:05PM 41.0570 -106.8310 251° West 431 496 36,000  Level FlightAware
07:06PM 41.0350 -106.9160 251° West 431 496 36,000  Level FlightAware
07:07PM 41.0130 -107.0010 252° West 431 496 36,000  Level FlightAware
07:08PM 40.9860 -107.1080 251° West 431 496 36,000  Level FlightAware
07:08PM 40.9640 -107.1920 250° West 431 496 36,000  Level FlightAware
07:09PM 40.9410 -107.2770 251° West 431 496 36,000 -1,260 Level FlightAware
07:10PM 40.8867 -107.4856 251° West 410 472 34,000 -1,020 Descending Denver Center
07:11PM 40.8444 -107.6453 250° West 412 474 34,000  Level Denver Center
07:12PM 40.8072 -107.7828 251° West 414 476 34,000  Level Denver Center
07:13PM 40.7706 -107.9211 250° West 416 479 34,000  Level Denver Center
07:14PM 40.7306 -108.0672 250° West 416 479 34,000  Level Denver Center
07:15PM 40.6867 -108.2297 250° West 420 483 34,000  Level Denver Center
07:16PM 40.6483 -108.3683 250° West 421 484 34,000  Level Denver Center
07:17PM 40.6039 -108.5319 250° West 425 489 34,000  Level Denver Center
07:18PM 40.5644 -108.6736 250° West 428 493 34,000  Level Denver Center
07:19PM 40.5189 -108.8375 250° West 429 494 34,000  Level Denver Center
07:20PM 40.4789 -108.9783 250° West 430 495 34,000  Level Salt Lake Center
07:21PM 40.4336 -109.1408 249° West 427 491 34,000  Level Salt Lake Center
07:22PM 40.3939 -109.2797 250° West 427 491 34,000  Level Denver Center
07:23PM 40.3547 -109.4175 249° West 425 489 34,000  Level Denver Center
07:24PM 40.3089 -109.5775 249° West 422 486 34,000  Level Denver Center
07:25PM 40.2631 -109.7364 249° West 420 483 34,000  Level Salt Lake Center
07:26PM 40.2239 -109.8717 249° West 419 482 34,000  Level Salt Lake Center
07:27PM 40.1847 -110.0067 249° West 417 480 34,000  Level Salt Lake Center
07:28PM 40.1383 -110.1622 247° West 414 476 34,000  Level Salt Lake Center
07:29PM 40.0944 -110.2942 245° Southwest 412 474 34,000  Level Salt Lake Center
07:30PM 40.0392 -110.4481 246° West 416 479 34,000  Level Salt Lake Center
07:31PM 39.9936 -110.5806 246° West 417 480 34,000  Level Salt Lake Center
07:32PM 39.9481 -110.7122 246° West 417 480 34,000  Level Salt Lake Center
07:34PM 39.8944 -110.8661 246° West 418 481 34,000  Level Salt Lake Center
07:35PM 39.8492 -110.9964 245° Southwest 415 478 34,000  Level Salt Lake Center
07:36PM 39.7950 -111.1489 245° Southwest 416 479 34,000  Level Salt Lake Center
07:37PM 39.7467 -111.2842 245° Southwest 419 482 34,000  Level Salt Lake Center
07:38PM 39.6975 -111.4225 245° Southwest 421 484 34,000  Level Salt Lake Center
07:39PM 39.6080 -111.6680 245° Southwest 425 489 34,000  Level FlightAware
07:40PM 39.5750 -111.7610 245° Southwest 425 489 34,000  Level FlightAware
07:41PM 39.5370 -111.8660 245° Southwest 425 489 34,000  Level FlightAware
07:41PM 39.5030 -111.9600 244° Southwest 425 489 34,000  Level FlightAware
07:42PM 39.4700 -112.0490 245° Southwest 425 489 34,000  Level FlightAware
07:43PM 39.4330 -112.1510 245° Southwest 424 488 34,000  Level FlightAware
07:43PM 39.3980 -112.2470 244° Southwest 424 488 34,000  Level FlightAware
07:44PM 39.3640 -112.3390 244° Southwest 424 488 34,000  Level FlightAware
07:45PM 39.3270 -112.4380 247° West 426 490 34,000  Level FlightAware
07:46PM 39.2960 -112.5320 254° West 423 487 34,000  Level FlightAware
07:46PM 39.2750 -112.6290 254° West 423 487 34,000  Level FlightAware
07:47PM 39.2500 -112.7420 254° West 425 489 34,000  Level FlightAware
07:48PM 39.2290 -112.8380 253° West 425 489 34,000  Level FlightAware
07:48PM 39.2040 -112.9450 255° West 425 489 34,000  Level FlightAware
07:49PM 39.1830 -113.0430 253° West 425 489 34,000  Level FlightAware
07:50PM 39.1560 -113.1600 253° West 425 489 34,000  Level FlightAware
07:51PM 39.1310 -113.2630 253° West 425 489 34,000  Level FlightAware
07:51PM 39.1120 -113.3450 253° West 425 489 34,000  Level FlightAware
07:52PM 39.0920 -113.4270 254° West 425 489 34,000  Level FlightAware
07:53PM 39.0730 -113.5100 253° West 425 489 34,000  Level FlightAware
07:53PM 39.0530 -113.5920 253° West 425 489 34,000  Level FlightAware
07:54PM 39.0290 -113.6950 255° West 425 489 34,000  Level FlightAware
07:55PM 38.9903 -113.8842 253° West 423 487 34,000  Level Salt Lake Center
07:56PM 38.9561 -114.0269 253° West 421 484 34,000  Level Salt Lake Center
07:57PM 38.9225 -114.1706 253° West 421 484 34,000  Level Salt Lake Center
07:58PM 38.8889 -114.3128 253° West 420 483 34,000  Level Salt Lake Center
07:59PM 38.8547 -114.4561 253° West 420 483 34,000  Level Salt Lake Center
08:00PM 38.8139 -114.6294 252° West 424 488 34,000  Level Salt Lake Center
08:01PM 38.7783 -114.7722 253° West 423 487 34,000  Level Salt Lake Center
08:02PM 38.7433 -114.9167 252° West 425 489 34,000  Level Salt Lake Center
08:03PM 38.7067 -115.0622 252° West 428 493 34,000  Level Salt Lake Center
08:04PM 38.6703 -115.2072 253° West 429 494 34,000  Level Salt Lake Center
08:05PM 38.6325 -115.3608 252° West 427 491 34,000  Level Salt Lake Center
08:06PM 38.5969 -115.5042 253° West 424 488 34,000  Level Salt Lake Center
08:07PM 38.5617 -115.6475 252° West 424 488 34,000  Level Salt Lake Center
08:08PM 38.5253 -115.7917 252° West 426 490 34,000  Level Salt Lake Center
08:09PM 38.4883 -115.9353 252° West 426 490 34,000  Level Salt Lake Center
08:10PM 38.4517 -116.0786 252° West 425 489 34,000  Level Salt Lake Center
08:11PM 38.4153 -116.2211 252° West 424 488 34,000  Level Salt Lake Center
08:12PM 38.3861 -116.3342 251° West 423 487 34,000  Level Oakland Center
08:13PM 38.3486 -116.4767 252° West 423 487 34,000  Level Oakland Center
08:14PM 38.3119 -116.6194 252° West 424 488 34,000  Level Oakland Center
08:15PM 38.2744 -116.7628 251° West 426 490 34,000  Level Oakland Center
08:16PM 38.2292 -116.9339 250° West 426 490 34,000  Level Oakland Center
08:16PM 38.2211 -116.9628 254° West 425 489 34,000  Level Salt Lake Center
08:17PM 38.1894 -117.1042 259° West 421 484 34,000  Level Salt Lake Center
08:18PM 38.1719 -117.2194 262° West 432 497 34,000  Level Oakland Center
08:19PM 38.1547 -117.3661 261° West 422 486 34,000  Level Oakland Center
08:20PM 38.1367 -117.5036 260° West 418 481 34,000  Level Oakland Center
08:21PM 38.1175 -117.6481 261° West 417 480 34,000  Level Oakland Center
08:22PM 38.0944 -117.8222 260° West 417 480 34,000  Level Oakland Center
08:23PM 38.0744 -117.9675 260° West 418 481 34,000  Level Oakland Center
08:24PM 38.0547 -118.1114 260° West 416 479 34,000  Level Oakland Center
08:25PM 38.0342 -118.2572 260° West 418 481 34,000  Level Oakland Center
08:26PM 38.0136 -118.4044 260° West 422 486 34,000  Level Oakland Center
08:27PM 37.9931 -118.5514 260° West 423 487 34,000  Level Oakland Center
08:28PM 37.9722 -118.6978 260° West 423 487 34,000  Level Oakland Center
08:30PM 37.9290 -119.0030 260° West 424 488 34,000  Level FlightAware
08:31PM 37.9150 -119.1000 259° West 425 489 34,000  Level FlightAware
08:32PM 37.8980 -119.2140 259° West 425 489 34,000  Level FlightAware
08:32PM 37.8840 -119.3070 259° West 425 489 34,000  Level FlightAware
08:33PM 37.8660 -119.4260 260° West 424 488 34,000 -660 Level FlightAware
08:34PM 37.8480 -119.5520 259° West 426 490 32,900 -1,320 Descending FlightAware
08:35PM 37.8330 -119.6520 259° West 424 488 32,200 -720 Descending FlightAware
08:35PM 37.8180 -119.7510 259° West 427 491 32,000 -180 Descending FlightAware
08:36PM 37.8010 -119.8580 259° West 428 493 32,000  Level FlightAware
08:37PM 37.7860 -119.9560 259° West 429 494 32,000  Level FlightAware
08:37PM 37.7740 -120.0370 259° West 429 494 32,000 -600 Level FlightAware
08:38PM 37.7530 -120.1680 259° West 430 495 31,200 -960 Descending FlightAware
08:39PM 37.7380 -120.2680 259° West 434 499 30,600 -1,020 Descending FlightAware
08:40PM 37.7210 -120.3780 258° West 438 504 29,800 -1,560 Descending FlightAware
08:40PM 37.7050 -120.4750 258° West 431 496 28,400 -2,280 Descending FlightAware
08:41PM 37.6890 -120.5730 259° West 420 483 26,800 -2,340 Descending FlightAware
08:42PM 37.6730 -120.6760 258° West 408 470 25,100 -2,340 Descending FlightAware
08:42PM 37.6580 -120.7680 259° West 399 459 23,500 -2,400 Descending FlightAware
08:43PM 37.6410 -120.8750 258° West 391 450 21,700 -2,340 Descending FlightAware
08:44PM 37.6270 -120.9600 261° West 388 447 20,200 -1,320 Descending FlightAware
08:45PM 37.6170 -121.0420 262° West 388 447 20,000 -180 Descending FlightAware
08:45PM 37.6080 -121.1180 261° West 388 447 20,000  Level FlightAware
08:46PM 37.5980 -121.1950 261° West 388 447 20,000  Level FlightAware
08:47PM 37.5860 -121.2900 264° West 388 447 20,000 -4,560 Level FlightAware
08:47PM 37.5770 -121.3970 258° West 352 405 13,600 -7,800 Descending FlightAware
08:48PM 37.5700 -121.4386 266° West 358 412 12,100 -2,520 Descending Oakland Center
08:48PM 37.5667 -121.5000 253° West 346 398 11,500 -900 Descending Northern Cal TRACON
08:49PM 37.5360 -121.6230 255° West 294 338 10,700 -600 Descending FlightAware
08:50PM 37.5250 -121.6730 256° West 293 337 10,500 -1,200 Descending FlightAware
08:50PM 37.5167 -121.7167 256° West 292 336 9,600 -1,560 Descending Northern Cal TRACON
08:51PM 37.5000 -121.8000 258° West 280 322 8,600 -900 Descending Northern Cal TRACON
08:52PM 37.4833 -121.9000 284° West 289 333 7,900 -960 Descending Northern Cal TRACON
08:53PM 37.5000 -121.9833 290° West 258 297 6,700 -1,140 Descending Northern Cal TRACON
08:55PM 37.5344 -122.1044 304° West 247 284 4,900 -1,320 Descending Oakland Center
08:55PM 37.5500 -122.1333 280° West 219 252 4,100 -1,140 Descending Northern Cal TRACON
08:56PM 37.5556 -122.1725 292° West 225 259 3,800 -1,260 Descending Oakland Center
08:57PM 37.5781 -122.2431 284° West 195 224 2,000 -1,380 Descending Oakland Center
08:58PM 37.5892 -122.2981 294° West 174 200 1,000 -900 Descending Oakland Center
08:59PM 37.6056 -122.3436 301° West 154 177 200 -840 Descending Oakland Center
09:02PM 37.6167 -122.3667 301° West  Level FlightAware Approximate